createdAt,value
2019-01-31T00:00:32.812Z,22.07
2019-01-31T00:03:31.280Z,21.47
2019-01-31T00:06:06.204Z,22.70
2019-01-31T00:08:57.436Z,21.20
2019-01-31T00:11:36.598Z,22.63
2019-01-31T00:14:38.741Z,20.43
2019-01-31T00:17:33.133Z,20.70
2019-01-31T00:20:30.861Z,22.83
2019-01-31T00:23:36.994Z,20.70
2019-01-31T00:26:19.746Z,20.30
2019-01-31T00:29:16.497Z,19.90
2019-01-31T00:31:59.078Z,20.33
2019-01-31T00:35:05.174Z,23.83
2019-01-31T00:37:41.529Z,23.90
2019-01-31T00:40:50.548Z,23.37
2019-01-31T00:43:33.113Z,19.77
2019-01-31T00:46:31.034Z,21.13
2019-01-31T00:49:36.326Z,21.93
2019-01-31T00:52:46.180Z,21.40
2019-01-31T00:55:34.145Z,17.30
2019-01-31T00:58:21.679Z,16.63
2019-01-31T01:01:25.477Z,16.63
2019-01-31T01:04:45.594Z,17.07
2019-01-31T01:08:01.817Z,18.60
2019-01-31T01:10:37.277Z,17.70
2019-01-31T01:13:25.694Z,14.97
2019-01-31T01:16:16.034Z,16.00
2019-01-31T01:19:07.913Z,20.93
2019-01-31T01:22:36.395Z,15.90
2019-01-31T01:25:44.015Z,16.47
2019-01-31T01:28:41.503Z,17.90
2019-01-31T01:31:36.292Z,16.40
2019-01-31T01:34:25.280Z,17.30
2019-01-31T01:37:13.229Z,16.97
2019-01-31T01:40:26.956Z,15.93
2019-01-31T01:43:33.431Z,16.40
2019-01-31T01:46:37.542Z,15.43
2019-01-31T01:49:12.858Z,17.97
2019-01-31T01:52:04.117Z,15.93
2019-01-31T01:54:58.584Z,16.57
2019-01-31T01:58:05.935Z,17.33
2019-01-31T02:01:43.513Z,16.30
2019-01-31T02:04:59.061Z,13.93
2019-01-31T02:07:47.982Z,15.50
2019-01-31T02:10:35.957Z,15.93
2019-01-31T02:13:43.209Z,13.90
2019-01-31T02:16:40.705Z,13.57
2019-01-31T02:19:43.836Z,12.50
2019-01-31T02:22:37.659Z,9.83
2019-01-31T02:25:14.169Z,11.17
2019-01-31T02:28:15.725Z,10.30
2019-01-31T02:31:02.918Z,11.60
2019-01-31T02:33:56.575Z,12.37
2019-01-31T02:36:51.240Z,11.03
2019-01-31T02:39:50.401Z,12.40
2019-01-31T02:43:02.794Z,11.30
2019-01-31T02:46:08.749Z,11.57
2019-01-31T02:49:04.548Z,9.20
2019-01-31T02:52:07.411Z,10.30
2019-01-31T02:55:00.773Z,10.00
2019-01-31T02:57:51.867Z,11.40
2019-01-31T03:00:56.293Z,10.70
2019-01-31T03:03:50.025Z,9.63
2019-01-31T03:06:40.414Z,9.77
2019-01-31T03:09:54.357Z,7.93
2019-01-31T03:12:22.900Z,10.20
2019-01-31T03:14:57.333Z,9.20
2019-01-31T03:17:59.060Z,9.27
2019-01-31T03:20:47.090Z,8.53
2019-01-31T03:23:54.221Z,9.10
2019-01-31T03:27:00.106Z,8.63
2019-01-31T03:30:24.907Z,10.97
2019-01-31T03:33:04.061Z,8.10
2019-01-31T03:36:09.942Z,11.93
2019-01-31T03:39:05.865Z,7.80
2019-01-31T03:42:24.583Z,7.50
2019-01-31T03:45:00.707Z,7.93
2019-01-31T03:48:21.027Z,7.20
2019-01-31T03:50:58.350Z,6.17
2019-01-31T03:54:01.062Z,5.60
2019-01-31T03:56:47.665Z,5.63
2019-01-31T03:59:33.406Z,7.00
2019-01-31T04:02:40.593Z,6.93
2019-01-31T04:05:42.615Z,6.93
2019-01-31T04:08:11.763Z,9.13
2019-01-31T04:10:40.494Z,6.43
2019-01-31T04:13:09.332Z,7.70
2019-01-31T04:15:38.049Z,9.90
2019-01-31T04:18:06.917Z,7.30
2019-01-31T04:20:36.130Z,8.03
2019-01-31T04:23:24.338Z,8.83
2019-01-31T04:25:53.364Z,9.07
2019-01-31T04:28:22.331Z,7.50
2019-01-31T04:30:51.054Z,8.60
2019-01-31T04:33:19.757Z,7.07
2019-01-31T04:35:48.789Z,9.30
2019-01-31T04:38:19.795Z,10.50
2019-01-31T04:40:48.422Z,7.80
2019-01-31T04:43:17.722Z,12.23
2019-01-31T04:45:46.425Z,8.33
2019-01-31T04:48:15.240Z,8.00
2019-01-31T04:50:44.269Z,9.03
2019-01-31T04:53:13.477Z,8.00
2019-01-31T04:55:42.424Z,7.33
2019-01-31T04:58:11.402Z,9.80
2019-01-31T05:00:40.196Z,6.77
2019-01-31T05:03:09.385Z,6.10
2019-01-31T05:05:38.358Z,5.70
2019-01-31T05:08:07.116Z,7.73
2019-01-31T05:10:42.886Z,6.53
2019-01-31T05:13:06.297Z,6.80
2019-01-31T05:15:35.125Z,9.40
2019-01-31T05:18:03.828Z,7.53
2019-01-31T05:20:32.878Z,6.27
2019-01-31T05:23:01.585Z,9.70
2019-01-31T05:25:30.548Z,7.87
2019-01-31T05:27:59.640Z,7.03
2019-01-31T05:30:28.375Z,9.27
2019-01-31T05:32:59.000Z,11.47
2019-01-31T05:35:28.235Z,24.80
2019-01-31T05:37:57.014Z,17.40
2019-01-31T05:40:25.821Z,12.93
2019-01-31T05:42:54.523Z,15.20
2019-01-31T05:45:23.267Z,11.13
2019-01-31T05:47:53.541Z,9.13
2019-01-31T05:50:22.352Z,6.10
2019-01-31T05:52:51.293Z,6.90
2019-01-31T05:55:20.010Z,7.90
2019-01-31T05:57:49.235Z,8.00
2019-01-31T06:00:27.820Z,8.73
2019-01-31T06:02:56.780Z,10.07
2019-01-31T06:05:25.973Z,7.50
2019-01-31T06:07:54.916Z,11.73
2019-01-31T06:10:23.888Z,9.90
2019-01-31T06:12:54.078Z,10.70
2019-01-31T06:15:23.037Z,11.87
2019-01-31T06:17:52.057Z,12.30
2019-01-31T06:20:23.421Z,9.03
2019-01-31T06:22:52.228Z,12.43
2019-01-31T06:25:20.976Z,10.53
2019-01-31T06:27:49.786Z,13.80
2019-01-31T06:30:18.583Z,12.20
2019-01-31T06:32:48.274Z,11.77
2019-01-31T06:35:17.143Z,12.60
2019-01-31T06:37:45.933Z,11.30
2019-01-31T06:40:18.918Z,11.23
2019-01-31T06:42:47.629Z,11.43
2019-01-31T06:45:18.766Z,12.80
2019-01-31T06:47:47.930Z,12.57
2019-01-31T06:50:16.768Z,12.97
2019-01-31T06:52:45.578Z,13.93
2019-01-31T06:55:14.370Z,12.17
2019-01-31T06:57:43.317Z,13.13
2019-01-31T07:00:18.213Z,11.40
2019-01-31T07:02:47.761Z,14.13
2019-01-31T07:05:17.286Z,11.73
2019-01-31T07:07:46.142Z,16.73
2019-01-31T07:10:20.460Z,11.47
2019-01-31T07:12:49.451Z,16.53
2019-01-31T07:15:19.160Z,13.20
2019-01-31T07:17:48.184Z,14.10
2019-01-31T07:20:17.478Z,10.23
2019-01-31T07:22:46.624Z,11.13
2019-01-31T07:25:18.508Z,11.63
2019-01-31T07:27:47.898Z,14.53
2019-01-31T07:30:17.221Z,11.13
2019-01-31T07:32:46.013Z,13.47
2019-01-31T07:35:14.957Z,10.50
2019-01-31T07:37:43.737Z,13.53
2019-01-31T07:40:14.368Z,9.30
2019-01-31T07:42:43.331Z,14.57
2019-01-31T07:45:19.453Z,11.57
2019-01-31T07:47:48.221Z,12.93
2019-01-31T07:50:17.631Z,12.67
2019-01-31T07:52:46.465Z,11.07
2019-01-31T07:55:15.425Z,12.43
2019-01-31T07:57:44.413Z,9.50
2019-01-31T08:00:14.656Z,8.70
2019-01-31T08:02:43.545Z,7.63
2019-01-31T08:05:15.239Z,10.50
2019-01-31T08:07:44.313Z,8.90
2019-01-31T08:10:15.925Z,9.90
2019-01-31T08:12:44.630Z,8.30
2019-01-31T08:15:14.945Z,7.00
2019-01-31T08:17:43.907Z,12.80
2019-01-31T08:20:14.408Z,9.63
2019-01-31T08:22:43.292Z,8.63
2019-01-31T08:25:14.155Z,7.60
2019-01-31T08:27:43.061Z,7.60
2019-01-31T08:30:15.334Z,7.10
2019-01-31T08:32:44.117Z,9.80
2019-01-31T08:35:13.370Z,7.73
2019-01-31T08:37:42.333Z,9.03
2019-01-31T08:40:11.834Z,6.60
2019-01-31T08:42:40.612Z,7.13
2019-01-31T08:45:10.562Z,9.80
2019-01-31T08:47:39.296Z,9.13
2019-01-31T08:50:11.572Z,13.10
2019-01-31T08:52:41.715Z,7.00
2019-01-31T08:55:10.638Z,8.20
2019-01-31T08:57:39.687Z,8.27
2019-01-31T09:00:11.960Z,6.23
2019-01-31T09:02:40.693Z,6.43
2019-01-31T09:05:10.799Z,5.30
2019-01-31T09:07:39.773Z,5.23
2019-01-31T09:10:11.686Z,4.33
2019-01-31T09:12:40.649Z,4.83
2019-01-31T09:15:10.898Z,6.10
2019-01-31T09:17:39.608Z,4.63
2019-01-31T09:20:10.634Z,5.80
2019-01-31T09:23:09.156Z,5.47
2019-01-31T09:26:15.876Z,4.97
2019-01-31T09:29:23.127Z,6.03
2019-01-31T09:32:18.078Z,5.23
2019-01-31T09:35:18.038Z,4.53
2019-01-31T09:38:18.014Z,4.30
2019-01-31T09:40:59.238Z,6.63
2019-01-31T09:44:36.677Z,4.67
2019-01-31T09:47:34.866Z,4.57
2019-01-31T09:50:41.013Z,5.27
2019-01-31T09:53:31.945Z,5.60
2019-01-31T09:56:41.057Z,7.23
2019-01-31T09:59:44.325Z,10.07
2019-01-31T10:02:56.003Z,8.30
2019-01-31T10:06:21.278Z,8.63
2019-01-31T10:09:16.019Z,4.17
2019-01-31T10:12:37.763Z,3.83
2019-01-31T10:15:37.398Z,7.23
2019-01-31T10:18:28.711Z,6.00
2019-01-31T10:21:47.883Z,5.03
2019-01-31T10:25:01.006Z,6.40
2019-01-31T10:28:05.864Z,3.97
2019-01-31T10:31:12.207Z,4.67
2019-01-31T10:34:46.765Z,4.30
2019-01-31T10:37:34.875Z,6.90
2019-01-31T10:40:44.179Z,6.43
2019-01-31T10:43:59.361Z,4.53
2019-01-31T10:47:01.769Z,7.17
2019-01-31T10:49:46.533Z,4.10
2019-01-31T10:52:57.695Z,4.10
2019-01-31T10:56:07.097Z,6.27
2019-01-31T10:59:04.528Z,4.33
2019-01-31T11:02:14.777Z,4.40
2019-01-31T11:05:15.307Z,3.77
2019-01-31T11:08:34.809Z,3.53
2019-01-31T11:11:23.173Z,9.63
2019-01-31T11:14:44.333Z,5.87
2019-01-31T11:17:53.612Z,9.00
2019-01-31T11:20:47.024Z,3.50
2019-01-31T11:23:42.430Z,4.93
2019-01-31T11:26:34.260Z,6.33
2019-01-31T11:29:38.535Z,5.40
2019-01-31T11:32:38.508Z,4.43
2019-01-31T11:35:18.535Z,4.07
2019-01-31T11:38:08.492Z,6.63
2019-01-31T11:41:17.625Z,6.93
2019-01-31T11:44:15.205Z,7.90
2019-01-31T11:47:23.612Z,5.37
2019-01-31T11:50:27.313Z,4.30
2019-01-31T11:53:20.129Z,4.90
2019-01-31T11:56:18.430Z,3.83
2019-01-31T11:59:02.115Z,6.27
2019-01-31T12:01:31.491Z,5.70
2019-01-31T12:04:06.448Z,5.63
2019-01-31T12:06:35.687Z,3.90
2019-01-31T12:09:08.715Z,8.77
2019-01-31T12:11:37.757Z,3.83
2019-01-31T12:14:06.853Z,3.60
2019-01-31T12:16:35.910Z,4.40
2019-01-31T12:19:07.419Z,3.47
2019-01-31T12:21:35.447Z,5.93
2019-01-31T12:24:04.548Z,4.63
2019-01-31T12:26:37.003Z,3.30
2019-01-31T12:29:06.085Z,3.83
2019-01-31T12:31:35.348Z,2.80
2019-01-31T12:34:06.067Z,4.10
2019-01-31T12:36:35.150Z,3.43
2019-01-31T12:39:07.774Z,9.47
2019-01-31T12:41:36.605Z,2.40
2019-01-31T12:44:05.550Z,2.90
2019-01-31T12:46:34.605Z,3.80
2019-01-31T12:49:03.863Z,2.37
2019-01-31T12:51:32.945Z,2.93
2019-01-31T12:54:01.974Z,2.80
2019-01-31T12:56:30.840Z,2.83
2019-01-31T12:58:59.595Z,3.40
2019-01-31T13:01:28.347Z,2.57
2019-01-31T13:03:57.169Z,4.57
2019-01-31T13:06:26.287Z,2.50
2019-01-31T13:08:55.390Z,3.27
2019-01-31T13:11:24.450Z,2.97
2019-01-31T13:13:53.234Z,2.20
2019-01-31T13:16:22.111Z,2.03
2019-01-31T13:18:51.086Z,2.97
2019-01-31T13:21:20.865Z,2.20
2019-01-31T13:23:49.964Z,2.20
2019-01-31T13:26:18.839Z,2.83
2019-01-31T13:28:47.625Z,3.87
2019-01-31T13:31:16.683Z,2.90
2019-01-31T13:33:46.750Z,3.13
2019-01-31T13:36:16.237Z,2.30
2019-01-31T13:38:45.002Z,1.43
2019-01-31T13:41:14.050Z,4.60
2019-01-31T13:43:44.364Z,1.53
2019-01-31T13:46:13.458Z,3.93
2019-01-31T13:48:42.272Z,2.57
2019-01-31T13:51:11.105Z,3.70
2019-01-31T13:53:39.857Z,1.30
2019-01-31T13:56:09.550Z,2.80
2019-01-31T13:58:39.553Z,1.60
2019-01-31T14:01:08.752Z,2.43
2019-01-31T14:03:37.505Z,4.30
2019-01-31T14:06:06.289Z,3.33
2019-01-31T14:08:35.110Z,1.83
2019-01-31T14:11:03.986Z,1.30
2019-01-31T14:13:32.948Z,2.50
2019-01-31T14:16:01.691Z,2.20
2019-01-31T14:18:30.952Z,1.30
2019-01-31T14:20:59.710Z,4.97
2019-01-31T14:23:28.517Z,2.77
2019-01-31T14:25:57.514Z,3.77
2019-01-31T14:28:26.774Z,2.93
2019-01-31T14:31:14.972Z,3.63
2019-01-31T14:33:44.264Z,3.23
2019-01-31T14:36:32.216Z,3.93
2019-01-31T14:39:01.497Z,1.80
2019-01-31T14:41:30.369Z,1.30
2019-01-31T14:43:59.442Z,1.83
2019-01-31T14:46:28.142Z,1.70
2019-01-31T14:48:57.105Z,1.63
2019-01-31T14:51:26.141Z,3.03
2019-01-31T14:53:59.501Z,2.37
2019-01-31T14:56:31.705Z,2.87
2019-01-31T14:59:01.136Z,1.30
2019-01-31T15:01:30.066Z,1.43
2019-01-31T15:03:59.021Z,1.20
2019-01-31T15:06:28.306Z,0.97
2019-01-31T15:08:57.272Z,2.20
2019-01-31T15:11:26.578Z,1.27
2019-01-31T15:13:55.417Z,2.97
2019-01-31T15:16:24.129Z,3.27
2019-01-31T15:18:52.849Z,1.70
2019-01-31T15:21:21.801Z,3.93
2019-01-31T15:23:50.802Z,3.07
2019-01-31T15:26:20.037Z,5.43
2019-01-31T15:28:48.769Z,3.07
2019-01-31T15:31:17.582Z,3.40
2019-01-31T15:33:46.575Z,1.10
2019-01-31T15:36:15.480Z,2.10
2019-01-31T15:38:44.485Z,1.80
2019-01-31T15:41:13.365Z,2.83
2019-01-31T15:43:42.205Z,4.57
2019-01-31T15:46:11.164Z,1.37
2019-01-31T15:48:39.996Z,3.17
2019-01-31T15:51:08.811Z,4.33
2019-01-31T15:53:37.570Z,3.60
2019-01-31T15:56:08.377Z,1.90
2019-01-31T15:58:37.410Z,4.67
2019-01-31T16:01:08.503Z,5.37
2019-01-31T16:03:37.604Z,5.57
2019-01-31T16:06:09.146Z,2.67
2019-01-31T16:08:38.493Z,2.50
2019-01-31T16:11:07.892Z,1.73
2019-01-31T16:13:37.062Z,1.70
2019-01-31T16:16:06.340Z,3.43
2019-01-31T16:18:35.449Z,2.70
2019-01-31T16:21:05.695Z,2.17
2019-01-31T16:23:34.769Z,6.60
2019-01-31T16:26:04.089Z,4.17
2019-01-31T16:28:33.126Z,1.93
2019-01-31T16:31:02.223Z,6.80
2019-01-31T16:33:31.798Z,1.67
2019-01-31T16:36:01.366Z,3.70
2019-01-31T16:38:30.165Z,5.03
2019-01-31T16:41:00.149Z,1.37
2019-01-31T16:43:29.216Z,1.40
2019-01-31T16:45:58.828Z,1.20
2019-01-31T16:48:28.152Z,2.80
2019-01-31T16:50:56.968Z,1.70
2019-01-31T16:53:26.019Z,3.80
2019-01-31T16:55:55.396Z,1.70
2019-01-31T16:58:24.257Z,1.83
2019-01-31T17:00:53.221Z,4.50
2019-01-31T17:03:22.033Z,4.77
2019-01-31T17:05:51.102Z,1.50
2019-01-31T17:08:20.224Z,1.90
2019-01-31T17:10:49.204Z,1.43
2019-01-31T17:13:18.023Z,4.60
2019-01-31T17:15:46.758Z,1.20
2019-01-31T17:18:15.736Z,2.60
2019-01-31T17:20:46.209Z,3.07
2019-01-31T17:23:14.936Z,2.40
2019-01-31T17:25:43.746Z,2.83
2019-01-31T17:28:12.445Z,1.80
2019-01-31T17:30:41.353Z,1.80
2019-01-31T17:33:10.391Z,1.90
2019-01-31T17:35:39.440Z,2.27
2019-01-31T17:38:08.409Z,1.93
2019-01-31T17:40:39.222Z,2.20
2019-01-31T17:43:09.481Z,1.80
2019-01-31T17:45:38.337Z,4.43
2019-01-31T17:48:09.067Z,1.80
2019-01-31T17:50:38.894Z,2.50
2019-01-31T17:53:07.630Z,1.97
2019-01-31T17:55:36.598Z,2.10
2019-01-31T17:58:05.710Z,1.83
2019-01-31T18:00:48.293Z,3.57
2019-01-31T18:03:17.333Z,1.97
2019-01-31T18:06:05.454Z,2.93
2019-01-31T18:08:34.206Z,1.87
2019-01-31T18:11:03.181Z,2.60
2019-01-31T18:13:31.975Z,2.50
2019-01-31T18:16:01.230Z,3.17
2019-01-31T18:18:29.947Z,2.90
2019-01-31T18:20:58.668Z,2.80
2019-01-31T18:23:27.637Z,6.53
2019-01-31T18:25:56.614Z,3.27
2019-01-31T18:28:25.895Z,3.43
2019-01-31T18:30:55.355Z,4.07
2019-01-31T18:33:27.626Z,4.70
2019-01-31T18:36:15.926Z,4.07
2019-01-31T18:38:44.905Z,4.63
2019-01-31T18:41:14.263Z,4.17
2019-01-31T18:43:43.873Z,4.30
2019-01-31T18:46:12.790Z,4.73
2019-01-31T18:48:41.741Z,4.17
2019-01-31T18:51:10.865Z,4.17
2019-01-31T18:53:40.015Z,3.80
2019-01-31T18:56:09.459Z,39.83
2019-01-31T18:58:38.427Z,22.23
2019-01-31T19:01:07.681Z,6.67
2019-01-31T19:03:37.159Z,8.70
2019-01-31T19:06:06.319Z,8.93
2019-01-31T19:08:35.075Z,12.20
2019-01-31T19:11:04.044Z,10.83
2019-01-31T19:13:33.294Z,4.97
2019-01-31T19:16:05.278Z,4.40
2019-01-31T19:18:34.273Z,5.90
2019-01-31T19:21:03.547Z,4.57
2019-01-31T19:23:36.113Z,9.77
2019-01-31T19:26:05.460Z,7.57
2019-01-31T19:28:34.421Z,7.53
2019-01-31T19:31:03.458Z,5.67
2019-01-31T19:33:32.810Z,6.67
2019-01-31T19:36:01.736Z,6.30
2019-01-31T19:38:31.450Z,7.83
2019-01-31T19:41:00.459Z,7.50
2019-01-31T19:43:32.114Z,5.97
2019-01-31T19:46:01.450Z,7.10
2019-01-31T19:48:30.519Z,6.43
2019-01-31T19:51:01.573Z,5.67
2019-01-31T19:53:32.534Z,8.63
2019-01-31T19:56:22.273Z,10.63
2019-01-31T19:58:51.326Z,9.87
2019-01-31T20:01:20.360Z,7.90
2019-01-31T20:03:49.327Z,7.70
2019-01-31T20:06:18.512Z,8.10
2019-01-31T20:08:47.548Z,6.50
2019-01-31T20:11:16.443Z,9.30
2019-01-31T20:13:45.577Z,7.17
2019-01-31T20:16:16.199Z,8.47
2019-01-31T20:18:45.258Z,4.90
2019-01-31T20:21:14.396Z,6.10
2019-01-31T20:23:44.864Z,5.30
2019-01-31T20:26:14.132Z,8.00
2019-01-31T20:28:42.998Z,6.23
2019-01-31T20:31:11.999Z,5.67
2019-01-31T20:33:40.782Z,6.77
2019-01-31T20:36:09.599Z,5.10
2019-01-31T20:38:38.440Z,5.00
2019-01-31T20:41:07.382Z,5.40
2019-01-31T20:43:36.665Z,9.30
2019-01-31T20:46:08.592Z,4.90
2019-01-31T20:48:37.444Z,5.50
2019-01-31T20:51:06.266Z,7.00
2019-01-31T20:53:35.362Z,5.33
2019-01-31T20:56:04.181Z,5.93
2019-01-31T20:58:32.920Z,5.03
2019-01-31T21:01:01.969Z,5.60
2019-01-31T21:03:30.699Z,5.40
2019-01-31T21:05:59.723Z,6.17
2019-01-31T21:08:29.044Z,5.87
2019-01-31T21:10:58.086Z,6.90
2019-01-31T21:13:27.498Z,4.40
2019-01-31T21:15:56.351Z,7.40
2019-01-31T21:18:25.460Z,5.07
2019-01-31T21:20:54.270Z,5.87
2019-01-31T21:23:23.006Z,6.10
2019-01-31T21:25:53.560Z,4.53
2019-01-31T21:28:22.299Z,6.73
2019-01-31T21:30:52.657Z,4.00
2019-01-31T21:33:21.437Z,5.00
2019-01-31T21:35:50.422Z,4.40
2019-01-31T21:38:19.129Z,5.77
2019-01-31T21:40:48.097Z,5.40
2019-01-31T21:43:16.973Z,4.17
2019-01-31T21:45:46.024Z,7.73
2019-01-31T21:48:15.514Z,6.67
2019-01-31T21:50:44.309Z,5.23
2019-01-31T21:53:13.611Z,5.10
2019-01-31T21:55:42.418Z,5.60
2019-01-31T21:58:10.764Z,5.57
2019-01-31T22:00:39.813Z,8.00
2019-01-31T22:03:08.996Z,5.30
2019-01-31T22:05:38.064Z,5.63
2019-01-31T22:08:07.258Z,3.77
2019-01-31T22:10:36.033Z,3.50
2019-01-31T22:13:05.122Z,3.90
2019-01-31T22:15:34.149Z,4.30
2019-01-31T22:18:02.882Z,5.30
2019-01-31T22:20:31.630Z,2.93
2019-01-31T22:23:00.603Z,5.50
2019-01-31T22:25:29.580Z,4.97
2019-01-31T22:27:58.311Z,4.30
2019-01-31T22:30:32.217Z,4.70
2019-01-31T22:33:00.921Z,4.50
2019-01-31T22:35:29.931Z,3.20
2019-01-31T22:37:58.736Z,2.30
2019-01-31T22:40:27.621Z,4.07
2019-01-31T22:42:56.360Z,2.70
2019-01-31T22:45:25.510Z,2.50
2019-01-31T22:47:55.454Z,3.47
2019-01-31T22:50:24.469Z,2.70
2019-01-31T22:52:53.198Z,2.70
2019-01-31T22:55:23.901Z,6.70
2019-01-31T22:57:53.871Z,3.43
2019-01-31T23:00:59.818Z,1.93
2019-01-31T23:03:28.675Z,2.00
2019-01-31T23:05:57.475Z,6.23
2019-01-31T23:08:26.175Z,3.17
2019-01-31T23:10:55.202Z,2.67
2019-01-31T23:13:24.153Z,4.93
2019-01-31T23:15:53.220Z,3.73
2019-01-31T23:18:21.924Z,2.60
2019-01-31T23:20:50.657Z,1.97
2019-01-31T23:23:19.666Z,3.57
2019-01-31T23:25:48.753Z,4.57
2019-01-31T23:28:17.733Z,2.80
2019-01-31T23:30:46.697Z,1.50
2019-01-31T23:33:15.710Z,1.80
2019-01-31T23:35:45.005Z,2.83
2019-01-31T23:38:13.707Z,2.93
2019-01-31T23:40:44.399Z,2.30
2019-01-31T23:43:13.601Z,1.60
2019-01-31T23:45:42.345Z,2.20
2019-01-31T23:48:11.128Z,1.83
2019-01-31T23:50:41.700Z,2.60
2019-01-31T23:53:11.742Z,2.00
2019-01-31T23:55:40.930Z,2.10
2019-01-31T23:58:09.977Z,2.00
